KMJX/MJX METAR and TAF weather

Enter ICAO airport designator
Station Type Date Time Source
KMJX METAR 2022/05/03 13:08 UTC NOAA

KMJX 031308Z AUTO 06008KT 10SM OVC011 13/10 A3018 RMK AO2


Station Type Date Time Source
KMJX Decoded METAR 2022/05/03 13:08 UTC NOAA

Station name not available
May 03, 2022 - 09:08 AM EDT / 2022.05.03 1308 UTC
Wind: from the ENE (060 degrees) at 9 MPH (8 KT):0
Visibility: 10 mile(s):0
Sky conditions: overcast
Temperature: 55 F (13 C)
Dew Point: 50 F (10 C)
Relative Humidity: 81%
Pressure (altimeter): 30.18 in. Hg (1022 hPa)
ob: KMJX 031308Z AUTO 06008KT 10SM OVC011 13/10 A3018 RMK AO2
cycle: 13

Station Type Date Time Source
KMJX TAF UTC NOAA

Error!

Example: see airport list